createdAt,value
2016-08-16T06:05:47.236Z,16.2
2016-08-16T06:06:47.949Z,16.21
2016-08-16T06:07:48.642Z,16.21
2016-08-16T06:08:48.635Z,16.21
2016-08-16T06:09:47.884Z,16.2
2016-08-16T06:10:48.646Z,16.2
2016-08-16T06:11:47.852Z,16.27
2016-08-16T06:12:48.571Z,16.35
2016-08-16T06:13:48.553Z,16.36
2016-08-16T06:14:48.530Z,16.39
2016-08-16T06:15:48.534Z,16.43
2016-08-16T06:16:48.517Z,16.46
2016-08-16T06:17:47.789Z,16.51
2016-08-16T06:18:48.474Z,16.48
2016-08-16T06:19:47.748Z,16.57
2016-08-16T06:20:48.448Z,16.57
2016-08-16T06:21:48.426Z,16.6
2016-08-16T06:22:48.414Z,16.64
2016-08-16T06:23:47.692Z,16.74
2016-08-16T06:24:47.670Z,16.75
2016-08-16T06:25:48.363Z,16.75
2016-08-16T06:26:47.644Z,16.69
2016-08-16T06:27:48.345Z,16.78
2016-08-16T06:28:47.617Z,16.78
2016-08-16T06:29:48.336Z,16.87
2016-08-16T06:30:48.351Z,16.9
2016-08-16T06:31:47.573Z,16.93
2016-08-16T06:32:48.322Z,16.89
2016-08-16T06:33:47.544Z,16.81
2016-08-16T06:34:48.273Z,16.93
2016-08-16T06:35:46.819Z,16.9
2016-08-16T06:36:48.203Z,16.96
2016-08-16T06:37:47.499Z,16.94
2016-08-16T06:38:47.460Z,16.96
2016-08-16T06:39:48.158Z,17.01
2016-08-16T06:40:46.712Z,17.03
2016-08-16T06:41:48.150Z,17.18
2016-08-16T06:42:48.119Z,17.19
2016-08-16T06:43:48.122Z,17.18
2016-08-16T06:44:47.377Z,17.29
2016-08-16T06:45:48.080Z,17.34
2016-08-16T06:46:48.073Z,17.42
2016-08-16T06:47:48.059Z,17.52
2016-08-16T06:48:48.048Z,17.52
2016-08-16T06:49:48.024Z,17.54
2016-08-16T06:50:48.007Z,17.64
2016-08-16T06:51:47.290Z,17.67
2016-08-16T06:52:47.286Z,17.72
2016-08-16T06:53:47.254Z,17.68
2016-08-16T06:54:47.962Z,17.65
2016-08-16T06:55:47.952Z,17.55
2016-08-16T06:56:47.938Z,17.71
2016-08-16T06:57:47.919Z,17.75
2016-08-16T06:58:47.195Z,17.8
2016-08-16T06:59:47.895Z,17.85
2016-08-16T07:00:47.147Z,17.89
2016-08-16T07:01:47.852Z,17.82
2016-08-16T07:02:47.122Z,17.87
2016-08-16T07:03:47.211Z,17.92
2016-08-16T07:04:47.822Z,17.96
2016-08-16T07:05:47.813Z,18.22
2016-08-16T07:06:47.797Z,18.12
2016-08-16T07:07:47.852Z,18.26
2016-08-16T07:08:47.768Z,18.25
2016-08-16T07:09:47.773Z,18.33
2016-08-16T07:10:47.741Z,18.45
2016-08-16T07:11:47.734Z,18.44
2016-08-16T07:12:46.993Z,18.48
2016-08-16T07:13:47.027Z,18.45
2016-08-16T07:14:46.987Z,18.44
2016-08-16T07:15:47.681Z,18.47
2016-08-16T07:16:47.665Z,18.73
2016-08-16T07:17:47.645Z,18.87
2016-08-16T07:18:47.641Z,19.16
2016-08-16T07:19:47.678Z,19.4
2016-08-16T07:20:47.605Z,19.38
2016-08-16T07:21:47.663Z,19.52
2016-08-16T07:22:47.579Z,19.85
2016-08-16T07:23:46.866Z,20.04
2016-08-16T07:24:46.828Z,20.17
2016-08-16T07:25:46.816Z,20.18
2016-08-16T07:26:47.536Z,20.33
2016-08-16T07:27:46.075Z,20.44
2016-08-16T07:28:47.519Z,20.69
2016-08-16T07:29:47.496Z,20.92
2016-08-16T07:30:47.477Z,21.34
2016-08-16T07:31:47.483Z,21.74
2016-08-16T07:32:47.455Z,22.67
2016-08-16T07:33:46.734Z,23.66
2016-08-16T07:34:46.728Z,24.22
2016-08-16T07:35:46.720Z,24.52
2016-08-16T07:36:46.716Z,24.93
2016-08-16T07:37:47.403Z,25.48
2016-08-16T07:38:46.704Z,25.74
2016-08-16T07:39:47.397Z,26.17
2016-08-16T07:40:47.419Z,26.39
2016-08-16T07:41:47.404Z,26.44
2016-08-16T07:42:47.390Z,26.66
2016-08-16T07:43:46.669Z,26.41
2016-08-16T07:44:46.661Z,26.67
2016-08-16T07:45:47.380Z,27.01
2016-08-16T07:46:46.658Z,27.31
2016-08-16T07:47:47.354Z,27.6
2016-08-16T07:48:46.656Z,27.69
2016-08-16T07:49:46.634Z,27.74
2016-08-16T07:50:47.679Z,27.78
2016-08-16T07:51:47.344Z,27.9
2016-08-16T07:52:47.347Z,27.97
2016-08-16T07:53:46.630Z,28.33
2016-08-16T07:54:47.340Z,28.12
2016-08-16T07:55:47.338Z,28.15
2016-08-16T07:56:47.338Z,28.35
2016-08-16T07:57:47.345Z,28.64
2016-08-16T07:58:45.902Z,28.61
2016-08-16T07:59:46.629Z,28.86
2016-08-16T08:00:47.354Z,28.56
2016-08-16T08:01:46.633Z,28.67
2016-08-16T08:02:46.631Z,28.55
2016-08-16T08:03:47.339Z,28.24
2016-08-16T08:04:47.329Z,28.15
2016-08-16T08:05:47.337Z,28.27
2016-08-16T08:06:46.621Z,28.53
2016-08-16T08:07:47.324Z,28.46
2016-08-16T08:08:47.337Z,28.4
2016-08-16T08:09:46.740Z,28.3
2016-08-16T08:10:46.629Z,28.15
2016-08-16T08:11:47.339Z,28.28
2016-08-16T08:12:46.623Z,28.24
2016-08-16T08:13:47.360Z,28.27
2016-08-16T08:14:47.362Z,28.79
2016-08-16T08:15:45.910Z,29.14
2016-08-16T08:16:47.346Z,29.59
2016-08-16T08:17:47.347Z,29.68
2016-08-16T08:18:46.619Z,29.46
2016-08-16T08:19:46.628Z,29.51
2016-08-16T08:20:46.629Z,29.44
2016-08-16T08:21:47.394Z,29.42
2016-08-16T08:22:47.335Z,29.57
2016-08-16T08:23:45.976Z,29.17
2016-08-16T08:24:46.630Z,28.97
2016-08-16T08:25:47.344Z,28.95
2016-08-16T08:26:47.344Z,29.52
2016-08-16T08:27:47.357Z,29.58
2016-08-16T08:28:45.939Z,29.33
2016-08-16T08:29:46.641Z,29.24
2016-08-16T08:30:47.345Z,29.24
2016-08-16T08:31:47.437Z,29.2
2016-08-16T08:32:47.351Z,29.21
2016-08-16T08:33:47.350Z,29.25
2016-08-16T08:34:46.657Z,29.33
2016-08-16T08:35:47.364Z,29.15
2016-08-16T08:36:46.647Z,29.02
2016-08-16T08:37:47.351Z,29.42
2016-08-16T08:38:46.701Z,29.55
2016-08-16T08:39:47.387Z,29.7
2016-08-16T08:40:47.379Z,29.52
2016-08-16T08:41:46.658Z,29.52
2016-08-16T08:42:47.375Z,29.4
2016-08-16T08:43:47.379Z,29.62
2016-08-16T08:44:47.376Z,29.76
2016-08-16T08:45:47.397Z,29.98
2016-08-16T08:46:47.374Z,30.31
2016-08-16T08:47:47.378Z,30.38
2016-08-16T08:48:47.384Z,30.64
2016-08-16T08:49:47.390Z,30.93
2016-08-16T08:50:46.675Z,30.81
2016-08-16T08:51:47.391Z,30.83
2016-08-16T08:52:47.395Z,30.64
2016-08-16T08:53:47.408Z,30.93
2016-08-16T08:54:47.388Z,30.45
2016-08-16T08:55:47.510Z,29.84
2016-08-16T08:56:46.702Z,30.17
2016-08-16T08:57:46.691Z,30.56
2016-08-16T08:58:47.423Z,30.54
2016-08-16T08:59:46.696Z,30.63
2016-08-16T09:00:47.420Z,30.64
2016-08-16T09:01:47.416Z,30.49
2016-08-16T09:02:45.984Z,30.05
2016-08-16T09:03:46.777Z,29.58
2016-08-16T09:04:47.458Z,29.61
2016-08-16T09:05:46.705Z,29.95
2016-08-16T09:06:47.436Z,29.89
2016-08-16T09:07:46.728Z,29.47
2016-08-16T09:08:46.710Z,30.2
2016-08-16T09:09:47.486Z,29.96
2016-08-16T09:10:47.444Z,30.32
2016-08-16T09:11:46.742Z,30.56
2016-08-16T09:12:47.729Z,30.66
2016-08-16T09:13:47.495Z,30.43
2016-08-16T09:14:46.734Z,30.66
2016-08-16T09:15:47.458Z,30.08
2016-08-16T09:16:46.025Z,29.54
2016-08-16T09:17:47.579Z,29.07
2016-08-16T09:18:47.455Z,28.77
2016-08-16T09:19:46.767Z,28.38
2016-08-16T09:20:47.461Z,28.03
2016-08-16T09:21:47.471Z,27.53
2016-08-16T09:22:47.451Z,28.01
2016-08-16T09:23:47.460Z,28.28
2016-08-16T09:24:46.769Z,28.52
2016-08-16T09:25:47.467Z,29
2016-08-16T09:26:46.045Z,29
2016-08-16T09:27:47.458Z,29.62
2016-08-16T09:28:46.736Z,29.37
2016-08-16T09:29:47.449Z,29.77
2016-08-16T09:30:47.533Z,30.21
2016-08-16T09:31:46.742Z,30.36
2016-08-16T09:32:46.766Z,30.58
2016-08-16T09:33:47.487Z,30.64
2016-08-16T09:34:47.484Z,30.74
2016-08-16T09:35:46.740Z,30.59
2016-08-16T09:36:46.744Z,30.35
2016-08-16T09:37:47.464Z,30.71
2016-08-16T09:38:46.037Z,30.92
2016-08-16T09:39:46.759Z,31.01
2016-08-16T09:40:47.468Z,31.04
2016-08-16T09:41:46.027Z,30.95
2016-08-16T09:42:47.573Z,30.89
2016-08-16T09:43:46.759Z,30.9
2016-08-16T09:44:47.478Z,30.67
2016-08-16T09:45:46.761Z,30.93
2016-08-16T09:46:47.472Z,31
2016-08-16T09:47:47.490Z,31.08
2016-08-16T09:48:46.788Z,31.11
2016-08-16T09:49:47.486Z,31.49
2016-08-16T09:50:47.490Z,31.57
2016-08-16T09:51:46.764Z,31.51
2016-08-16T09:52:47.483Z,31.12
2016-08-16T09:53:46.780Z,31.29
2016-08-16T09:54:47.503Z,31.15
2016-08-16T09:55:47.497Z,31.48
2016-08-16T09:56:47.499Z,30.98
2016-08-16T09:57:47.499Z,30.96
2016-08-16T09:58:47.497Z,30.63
2016-08-16T09:59:47.503Z,31.11
2016-08-16T10:00:46.778Z,31.3
2016-08-16T10:01:47.541Z,31.75
2016-08-16T10:02:46.788Z,31.75
2016-08-16T10:03:47.500Z,31.62
2016-08-16T10:04:46.787Z,31.82
2016-08-16T10:05:47.499Z,31.82
2016-08-16T10:06:46.087Z,31.87
2016-08-16T10:07:46.802Z,31.89
2016-08-16T10:08:46.779Z,32.08
2016-08-16T10:09:47.518Z,32.05
2016-08-16T10:10:47.511Z,31.9
2016-08-16T10:11:46.834Z,31.99
2016-08-16T10:12:47.507Z,32.13
2016-08-16T10:13:47.515Z,31.29
2016-08-16T10:14:46.786Z,31.45
2016-08-16T10:15:46.798Z,31.19
2016-08-16T10:16:46.796Z,30.98
2016-08-16T10:17:47.509Z,30.58
2016-08-16T10:18:47.500Z,30.39
2016-08-16T10:19:46.784Z,30.45
2016-08-16T10:20:46.865Z,30.49
2016-08-16T10:21:47.498Z,30.63
2016-08-16T10:22:47.554Z,30.18
2016-08-16T10:23:47.494Z,30.76
2016-08-16T10:24:47.494Z,30.85
2016-08-16T10:25:47.487Z,30.77
2016-08-16T10:26:46.790Z,31.1
2016-08-16T10:27:47.490Z,30.74
2016-08-16T10:28:47.499Z,30.82
2016-08-16T10:29:47.479Z,30.81
2016-08-16T10:30:47.479Z,30.35
2016-08-16T10:31:47.467Z,30.38
2016-08-16T10:32:46.762Z,30.07
2016-08-16T10:33:47.469Z,30.23
2016-08-16T10:34:47.503Z,30.29
2016-08-16T10:35:47.479Z,30.25
2016-08-16T10:36:47.462Z,29.91
2016-08-16T10:37:47.454Z,30.32
2016-08-16T10:38:46.740Z,30.29
2016-08-16T10:39:46.807Z,30.51
2016-08-16T10:40:47.438Z,30.05
2016-08-16T10:41:47.477Z,29.91
2016-08-16T10:42:46.723Z,29.76
2016-08-16T10:43:47.424Z,30.08
2016-08-16T10:44:47.431Z,30.45
2016-08-16T10:45:47.418Z,30.35
2016-08-16T10:46:46.710Z,30.38
2016-08-16T10:47:47.444Z,30.58
2016-08-16T10:48:46.707Z,30.68
2016-08-16T10:49:47.416Z,30.85
2016-08-16T10:50:46.683Z,30.83
2016-08-16T10:51:46.740Z,30.83
2016-08-16T10:52:46.680Z,31.04
2016-08-16T10:53:45.970Z,30.82
2016-08-16T10:54:46.673Z,30.9
2016-08-16T10:55:47.402Z,30.98
2016-08-16T10:56:47.390Z,31
2016-08-16T10:57:46.668Z,30.61
2016-08-16T10:58:47.532Z,30.31
2016-08-16T10:59:47.391Z,29.91
2016-08-16T11:00:47.376Z,29.91
2016-08-16T11:01:46.645Z,29.86
2016-08-16T11:02:46.646Z,30.2
2016-08-16T11:03:46.649Z,29.99
2016-08-16T11:04:47.346Z,30.25
2016-08-16T11:05:47.339Z,29.28
2016-08-16T11:06:47.357Z,28.84
2016-08-16T11:08:46.624Z,28.53
2016-08-16T11:09:46.619Z,29.12
2016-08-16T11:10:47.344Z,29.47
2016-08-16T11:11:47.325Z,29.1
2016-08-16T11:12:46.599Z,28.7
2016-08-16T11:13:47.304Z,28.37
2016-08-16T11:14:47.295Z,27.96
2016-08-16T11:15:47.313Z,28.3
2016-08-16T11:16:47.290Z,28.5
2016-08-16T11:17:47.281Z,28.92
2016-08-16T11:18:47.288Z,29.2
2016-08-16T11:19:47.299Z,29.47
2016-08-16T11:20:46.561Z,29.49
2016-08-16T11:21:46.555Z,29.22
2016-08-16T11:22:47.263Z,29.47
2016-08-16T11:23:46.547Z,29.17
2016-08-16T11:24:47.296Z,29.49
2016-08-16T11:25:47.258Z,29.49
2016-08-16T11:26:46.562Z,28.84
2016-08-16T11:27:46.532Z,28.9
2016-08-16T11:28:47.264Z,28.98
2016-08-16T11:29:47.225Z,29.24
2016-08-16T11:30:47.229Z,29.61
2016-08-16T11:31:47.230Z,29.89
2016-08-16T11:32:47.269Z,29.92
2016-08-16T11:33:46.492Z,29.35
2016-08-16T11:34:47.226Z,29.07
2016-08-16T11:35:46.472Z,29.15
2016-08-16T11:36:47.180Z,29.46
2016-08-16T11:37:47.194Z,29.91
2016-08-16T11:38:46.464Z,30.13
2016-08-16T11:39:46.468Z,30.31
2016-08-16T11:40:47.169Z,30.36
2016-08-16T11:41:47.154Z,30.4
2016-08-16T11:42:47.165Z,30.58
2016-08-16T11:43:47.167Z,30.64
2016-08-16T11:44:46.438Z,30.59
2016-08-16T11:45:45.715Z,30.78
2016-08-16T11:46:47.147Z,30.83
2016-08-16T11:47:47.128Z,31.01
2016-08-16T11:48:47.131Z,30.93
2016-08-16T11:49:47.138Z,31.14
2016-08-16T11:50:46.408Z,30.51
2016-08-16T11:51:47.122Z,29.68
2016-08-16T11:52:47.123Z,29.46
2016-08-16T11:53:46.384Z,29.89
2016-08-16T11:54:47.103Z,29.96
2016-08-16T11:55:47.174Z,28.68
2016-08-16T11:56:46.394Z,28.6
2016-08-16T11:57:47.093Z,28.79
2016-08-16T11:58:47.093Z,29.15
2016-08-16T11:59:46.367Z,29.66
2016-08-16T12:00:45.646Z,29.68
2016-08-16T12:01:47.116Z,29.46
2016-08-16T12:02:47.068Z,29.39
2016-08-16T12:03:46.344Z,28.8
2016-08-16T12:04:46.344Z,28.55
2016-08-16T12:05:46.334Z,27.81
2016-08-16T12:06:47.036Z,27.57
2016-08-16T12:07:47.051Z,27.74
2016-08-16T12:08:47.050Z,28.31
2016-08-16T12:09:46.320Z,28.6
2016-08-16T12:10:47.048Z,28.8
2016-08-16T12:11:46.310Z,29.03
2016-08-16T12:12:47.019Z,28.95
2016-08-16T12:13:47.112Z,29.47
2016-08-16T12:14:47.004Z,29.79
2016-08-16T12:15:46.999Z,29.86
2016-08-16T12:16:46.284Z,30.21
2016-08-16T12:17:46.985Z,30.36
2016-08-16T12:18:47.003Z,30.76
2016-08-16T12:19:46.989Z,30.96
2016-08-16T12:20:46.992Z,30.77
2016-08-16T12:21:46.265Z,30.33
2016-08-16T12:22:46.967Z,30.21
2016-08-16T12:23:45.527Z,30.54
2016-08-16T12:24:45.534Z,30.26
2016-08-16T12:25:46.943Z,29.8
2016-08-16T12:26:46.949Z,29.55
2016-08-16T12:27:46.956Z,29.22
2016-08-16T12:28:46.223Z,28.8
2016-08-16T12:29:46.213Z,28.4
2016-08-16T12:30:46.195Z,28.3
2016-08-16T12:31:46.917Z,28.08
2016-08-16T12:32:46.972Z,28.19
2016-08-16T12:33:46.189Z,28.65
2016-08-16T12:34:46.205Z,28.37
2016-08-16T12:35:46.171Z,28.64
2016-08-16T12:36:46.892Z,28.62
2016-08-16T12:37:46.897Z,28.34
2016-08-16T12:38:46.173Z,28.55
2016-08-16T12:39:46.887Z,28.89
2016-08-16T12:40:46.155Z,28.98
2016-08-16T12:41:46.138Z,29.51
2016-08-16T12:42:46.871Z,29.51
2016-08-16T12:43:46.876Z,29.15
2016-08-16T12:44:46.851Z,29.27
2016-08-16T12:45:46.129Z,29.05
2016-08-16T12:46:46.113Z,29.1
2016-08-16T12:47:46.111Z,29.35
2016-08-16T12:48:46.819Z,29.61
2016-08-16T12:49:46.827Z,29.35
2016-08-16T12:50:46.824Z,29.05
2016-08-16T12:51:45.385Z,28.83
2016-08-16T12:52:46.808Z,28.4
2016-08-16T12:53:46.808Z,28.05
2016-08-16T12:54:46.795Z,28.16
2016-08-16T12:55:46.796Z,28.28
2016-08-16T12:56:45.345Z,28.03
2016-08-16T12:57:46.782Z,27.9
2016-08-16T12:58:46.793Z,27.91
2016-08-16T12:59:46.768Z,27.68
2016-08-16T13:00:46.036Z,27.43
2016-08-16T13:01:46.759Z,27.33
2016-08-16T13:02:46.023Z,27.41
2016-08-16T13:03:46.025Z,27.79
2016-08-16T13:04:46.734Z,28.18
2016-08-16T13:05:45.297Z,28.25
2016-08-16T13:06:45.367Z,28.58
2016-08-16T13:07:46.717Z,28.84
2016-08-16T13:08:46.708Z,29
2016-08-16T13:09:46.712Z,29.17
2016-08-16T13:10:46.004Z,29.25
2016-08-16T13:11:45.983Z,28.95
2016-08-16T13:12:46.681Z,29.24
2016-08-16T13:13:46.736Z,29.4
2016-08-16T13:14:46.665Z,29.2
2016-08-16T13:15:46.665Z,29.35
2016-08-16T13:16:46.658Z,29.21
2016-08-16T13:17:45.228Z,28.92
2016-08-16T13:18:46.644Z,28.5
2016-08-16T13:19:45.938Z,28.23
2016-08-16T13:20:46.646Z,28.03
2016-08-16T13:21:46.643Z,27.93
2016-08-16T13:22:46.627Z,27.82
2016-08-16T13:23:46.612Z,27.48
2016-08-16T13:24:45.909Z,26.93
2016-08-16T13:25:46.618Z,26.2
2016-08-16T13:26:45.886Z,26.38
2016-08-16T13:27:45.177Z,26.3
2016-08-16T13:28:46.583Z,26.61
2016-08-16T13:29:46.814Z,26.85
2016-08-16T13:30:46.580Z,27.34
2016-08-16T13:31:46.597Z,27.75
2016-08-16T13:32:45.843Z,28.06
2016-08-16T13:33:45.855Z,28.6
2016-08-16T13:34:45.830Z,28.92
2016-08-16T13:35:46.559Z,28.93
2016-08-16T13:36:46.533Z,28.86
2016-08-16T13:37:46.528Z,28.77
2016-08-16T13:38:46.624Z,29.15
2016-08-16T13:39:45.812Z,29.22
2016-08-16T13:40:46.565Z,29.58
2016-08-16T13:41:46.508Z,29.76
2016-08-16T13:42:45.800Z,29.58
2016-08-16T13:43:46.502Z,30.05
2016-08-16T13:44:46.521Z,29.84
2016-08-16T13:45:45.050Z,29.94
2016-08-16T13:46:45.767Z,29.68
2016-08-16T13:47:46.485Z,29.36
2016-08-16T13:48:46.478Z,29.15
2016-08-16T13:49:46.462Z,28.86
2016-08-16T13:50:45.790Z,29.12
2016-08-16T13:51:45.731Z,28.95
2016-08-16T13:52:46.464Z,28.64
2016-08-16T13:53:45.730Z,28.19
2016-08-16T13:54:46.439Z,27.76
2016-08-16T13:55:45.716Z,27.31
2016-08-16T13:56:46.425Z,27.19
2016-08-16T13:57:46.413Z,27.15
2016-08-16T13:58:46.408Z,27.06
2016-08-16T13:59:45.707Z,26.82
2016-08-16T14:00:46.397Z,26.47
2016-08-16T14:01:46.389Z,26.59
2016-08-16T14:02:45.665Z,26.48
2016-08-16T14:03:46.374Z,26.48
2016-08-16T14:04:46.395Z,26.38
2016-08-16T14:05:45.639Z,26.27
2016-08-16T14:06:44.929Z,25.85
2016-08-16T14:07:46.366Z,25.81
2016-08-16T14:08:45.630Z,26.08
2016-08-16T14:09:46.349Z,25.89
2016-08-16T14:10:46.329Z,25.81
2016-08-16T14:11:45.605Z,26.03
2016-08-16T14:12:46.317Z,26
2016-08-16T14:13:46.304Z,26.37
2016-08-16T14:14:46.293Z,26.34
2016-08-16T14:15:46.396Z,26.47
2016-08-16T14:16:44.869Z,26.76
2016-08-16T14:17:46.304Z,27.03
2016-08-16T14:18:46.277Z,27.34
2016-08-16T14:19:45.565Z,27.57
2016-08-16T14:20:46.256Z,27.76
2016-08-16T14:21:45.553Z,27.9
2016-08-16T14:22:46.234Z,27.88
2016-08-16T14:23:46.253Z,27.93
2016-08-16T14:24:46.229Z,27.48
2016-08-16T14:25:46.239Z,27.71
2016-08-16T14:26:46.230Z,27.84
2016-08-16T14:27:45.500Z,27.86
2016-08-16T14:28:45.490Z,28.16
2016-08-16T14:29:45.498Z,28.27
2016-08-16T14:30:46.197Z,27.94
2016-08-16T14:31:46.179Z,28.25
2016-08-16T14:32:45.476Z,28.34
2016-08-16T14:33:45.461Z,28.37
2016-08-16T14:34:46.169Z,28.31
2016-08-16T14:35:44.748Z,28.24
2016-08-16T14:36:45.438Z,28.1
2016-08-16T14:37:45.434Z,28.15
2016-08-16T14:38:45.438Z,28.09
2016-08-16T14:39:45.427Z,27.88
2016-08-16T14:40:46.121Z,27.28
2016-08-16T14:41:45.427Z,27.36
2016-08-16T14:42:45.425Z,27.3
2016-08-16T14:43:46.118Z,27.28
2016-08-16T14:44:44.818Z,27.3
2016-08-16T14:45:46.097Z,27.72
2016-08-16T14:46:46.097Z,27.59
2016-08-16T14:47:45.368Z,27.53
2016-08-16T14:48:45.368Z,27.81
2016-08-16T14:49:45.423Z,28.01
2016-08-16T14:50:46.063Z,27.87
2016-08-16T14:51:44.618Z,27.72
2016-08-16T14:52:46.052Z,27.46
2016-08-16T14:53:45.316Z,27.16
2016-08-16T14:54:46.033Z,27.16
2016-08-16T14:55:45.328Z,27.28
2016-08-16T14:56:46.223Z,27.38
2016-08-16T14:57:46.007Z,27.19
2016-08-16T14:58:45.301Z,27.06
2016-08-16T14:59:45.292Z,26.86
2016-08-16T15:00:45.316Z,26.96
2016-08-16T15:01:44.563Z,27.11
2016-08-16T15:02:45.991Z,27.18
2016-08-16T15:03:45.262Z,27.34
2016-08-16T15:04:45.295Z,27.53
2016-08-16T15:05:45.256Z,27.46
2016-08-16T15:06:45.239Z,27.57
2016-08-16T15:07:45.221Z,27.55
2016-08-16T15:08:45.946Z,27.75
2016-08-16T15:09:45.287Z,27.81
2016-08-16T15:10:45.924Z,27.44
2016-08-16T15:11:45.925Z,27.4
2016-08-16T15:12:45.203Z,27.57
2016-08-16T15:13:45.186Z,27.66
2016-08-16T15:14:45.900Z,27.74
2016-08-16T15:15:45.898Z,27.74
2016-08-16T15:16:45.912Z,27.68
2016-08-16T15:17:45.865Z,27.53
2016-08-16T15:18:45.158Z,27.49
2016-08-16T15:19:45.225Z,27.72
2016-08-16T15:20:45.867Z,27.71
2016-08-16T15:21:45.146Z,27.72
2016-08-16T15:22:45.845Z,27.57
2016-08-16T15:23:45.161Z,27.82
2016-08-16T15:24:45.822Z,27.68
2016-08-16T15:25:45.098Z,27.87
2016-08-16T15:26:45.103Z,27.21
2016-08-16T15:27:45.813Z,26.82
2016-08-16T15:28:45.085Z,26.75
2016-08-16T15:29:45.161Z,26.78
2016-08-16T15:30:45.077Z,26.86
2016-08-16T15:31:45.788Z,27.03
2016-08-16T15:32:45.056Z,27.23
2016-08-16T15:33:45.837Z,27.15
2016-08-16T15:34:45.763Z,27.3
2016-08-16T15:35:45.056Z,27.37
2016-08-16T15:36:45.756Z,27.31
2016-08-16T15:37:45.029Z,27.34
2016-08-16T15:38:45.013Z,27.19
2016-08-16T15:39:45.025Z,27.04
2016-08-16T15:40:45.725Z,27.03
2016-08-16T15:41:45.071Z,26.96
2016-08-16T15:42:45.693Z,27.16
2016-08-16T15:43:44.983Z,27.12
2016-08-16T15:44:44.981Z,27
2016-08-16T15:45:44.983Z,26.79
2016-08-16T15:46:44.974Z,26.89
2016-08-16T15:47:44.958Z,26.64
2016-08-16T15:48:44.229Z,26.37
2016-08-16T15:49:45.651Z,26.6
2016-08-16T15:50:45.652Z,26.67
2016-08-16T15:51:45.636Z,26.75
2016-08-16T15:52:45.623Z,26.79
2016-08-16T15:53:45.623Z,26.74
2016-08-16T15:54:45.621Z,26.57
2016-08-16T15:55:45.600Z,26.56
2016-08-16T15:56:45.597Z,26.66
2016-08-16T15:57:45.581Z,26.57
2016-08-16T15:58:44.878Z,26.51
2016-08-16T15:59:44.862Z,26.42
2016-08-16T16:00:45.566Z,26.2
2016-08-16T16:01:45.568Z,25.84
2016-08-16T16:02:45.559Z,25.95
2016-08-16T16:03:45.548Z,26.06
2016-08-16T16:04:45.537Z,26.24
2016-08-16T16:05:45.549Z,26.22
2016-08-16T16:06:44.810Z,26.24
2016-08-16T16:07:44.874Z,26.19
2016-08-16T16:08:45.513Z,26.07
2016-08-16T16:09:45.513Z,26.1
2016-08-16T16:10:45.503Z,26.11
2016-08-16T16:11:45.481Z,26.1
2016-08-16T16:12:44.766Z,25.79
2016-08-16T16:13:44.763Z,25.99
2016-08-16T16:14:45.511Z,25.94
2016-08-16T16:15:45.472Z,25.95
2016-08-16T16:16:45.475Z,25.73
2016-08-16T16:17:45.443Z,25.81
2016-08-16T16:18:45.435Z,25.7
2016-08-16T16:19:45.579Z,25.79
2016-08-16T16:20:44.705Z,25.51
2016-08-16T16:21:45.417Z,25.39
2016-08-16T16:22:44.720Z,25.36
2016-08-16T16:23:45.385Z,25.22
2016-08-16T16:24:44.725Z,25.12
2016-08-16T16:25:44.670Z,25.05
2016-08-16T16:26:43.935Z,25.05
2016-08-16T16:27:44.647Z,25.11
2016-08-16T16:28:45.374Z,25.17
2016-08-16T16:29:45.356Z,25.02
2016-08-16T16:30:44.637Z,25.12
2016-08-16T16:31:45.342Z,25.3
2016-08-16T16:32:45.371Z,25.32
2016-08-16T16:33:45.321Z,25.15
2016-08-16T16:34:45.292Z,24.92
2016-08-16T16:35:43.943Z,25.03
2016-08-16T16:36:43.858Z,25.08
2016-08-16T16:37:45.282Z,24.87
2016-08-16T16:38:44.558Z,24.85
2016-08-16T16:39:45.254Z,25
2016-08-16T16:40:45.333Z,24.87
2016-08-16T16:41:43.815Z,24.85
2016-08-16T16:42:45.252Z,24.77
2016-08-16T16:43:44.517Z,24.89
2016-08-16T16:44:45.229Z,24.8
2016-08-16T16:45:44.494Z,24.92
2016-08-16T16:46:45.199Z,24.9
2016-08-16T16:47:43.755Z,24.96
2016-08-16T16:48:45.175Z,25.02
2016-08-16T16:49:45.171Z,25.15
2016-08-16T16:50:44.463Z,25.07
2016-08-16T16:51:45.162Z,25.14
2016-08-16T16:52:44.435Z,25.15
2016-08-16T16:53:45.142Z,25.03
2016-08-16T16:54:44.416Z,24.84
2016-08-16T16:55:45.119Z,24.54
2016-08-16T16:56:45.123Z,24.28
2016-08-16T16:57:45.126Z,24.22
2016-08-16T16:58:45.104Z,24.09
2016-08-16T16:59:44.435Z,24.12
2016-08-16T17:00:45.087Z,24.04
2016-08-16T17:01:45.075Z,24.24
2016-08-16T17:02:45.061Z,24.24
2016-08-16T17:03:44.332Z,24.12
2016-08-16T17:04:45.062Z,24.12
2016-08-16T17:05:44.320Z,24.15
2016-08-16T17:06:44.325Z,24.06
2016-08-16T17:07:44.295Z,23.97
2016-08-16T17:08:45.015Z,24.02
2016-08-16T17:09:44.287Z,23.91
2016-08-16T17:10:44.981Z,23.8
2016-08-16T17:11:44.265Z,23.82
2016-08-16T17:12:44.261Z,24
2016-08-16T17:13:43.529Z,23.82
2016-08-16T17:14:44.958Z,23.87
2016-08-16T17:15:44.241Z,24.02
2016-08-16T17:16:44.958Z,23.96
2016-08-16T17:17:44.925Z,24
2016-08-16T17:18:43.483Z,23.97
2016-08-16T17:19:44.905Z,23.99
2016-08-16T17:20:44.905Z,23.95
2016-08-16T17:21:44.899Z,23.87
2016-08-16T17:22:44.917Z,23.82
2016-08-16T17:23:43.437Z,23.95
2016-08-16T17:24:44.866Z,23.84
2016-08-16T17:25:44.856Z,23.69
2016-08-16T17:26:44.841Z,23.63
2016-08-16T17:27:44.121Z,23.4
2016-08-16T17:28:44.124Z,23.51
2016-08-16T17:29:44.816Z,23.5
2016-08-16T17:30:43.456Z,23.36
2016-08-16T17:31:44.078Z,23.24
2016-08-16T17:32:43.360Z,23.27
2016-08-16T17:33:44.774Z,23.03
2016-08-16T17:34:44.783Z,23.09
2016-08-16T17:35:44.806Z,23.19
2016-08-16T17:36:44.037Z,23.22
2016-08-16T17:37:44.754Z,23.27
2016-08-16T17:38:43.294Z,23.12
2016-08-16T17:39:44.713Z,23.24
2016-08-16T17:40:43.991Z,23.38
2016-08-16T17:41:44.702Z,23.25
2016-08-16T17:42:43.981Z,23.25
2016-08-16T17:43:43.977Z,23.06
2016-08-16T17:44:43.951Z,23.03
2016-08-16T17:45:43.946Z,22.99
2016-08-16T17:46:44.655Z,22.95
2016-08-16T17:47:43.915Z,22.97
2016-08-16T17:48:44.637Z,23.1
2016-08-16T17:49:44.637Z,23.21
2016-08-16T17:50:43.974Z,23.27
2016-08-16T17:51:43.888Z,23.19
2016-08-16T17:52:44.595Z,23.09
2016-08-16T17:53:43.878Z,23.07
2016-08-16T17:54:44.636Z,22.98
2016-08-16T17:55:43.833Z,22.92
2016-08-16T17:56:43.839Z,23.02
2016-08-16T17:57:44.576Z,22.79
2016-08-16T17:58:43.872Z,22.82
2016-08-16T17:59:43.817Z,22.76
2016-08-16T18:00:43.824Z,22.77
2016-08-16T18:01:43.065Z,22.61
2016-08-16T18:02:44.534Z,22.58
2016-08-16T18:03:44.483Z,22.5
2016-08-16T18:04:44.479Z,22.52
2016-08-16T18:05:44.451Z,22.55
2016-08-16T18:06:44.438Z,22.58
2016-08-16T18:07:44.441Z,22.45
2016-08-16T18:08:44.429Z,22.52
2016-08-16T18:09:43.710Z,22.61
2016-08-16T18:10:44.426Z,22.67
2016-08-16T18:11:43.685Z,22.37
2016-08-16T18:12:43.677Z,22.42
2016-08-16T18:13:44.372Z,22.3
2016-08-16T18:14:44.376Z,22.37
2016-08-16T18:15:44.352Z,22.54
2016-08-16T18:16:44.331Z,22.33
2016-08-16T18:17:44.347Z,22.4
2016-08-16T18:18:42.899Z,22.48
2016-08-16T18:19:43.593Z,22.4
2016-08-16T18:20:43.591Z,22.51
2016-08-16T18:21:44.309Z,22.5
2016-08-16T18:22:43.556Z,22.58
2016-08-16T18:23:43.566Z,22.51
2016-08-16T18:24:44.286Z,22.45
2016-08-16T18:25:44.245Z,22.36
2016-08-16T18:26:42.808Z,22.4
2016-08-16T18:27:44.247Z,22.32
2016-08-16T18:28:43.501Z,22.32
2016-08-16T18:29:43.501Z,22.37
2016-08-16T18:30:42.775Z,22.2
2016-08-16T18:31:44.174Z,22.21
2016-08-16T18:32:44.174Z,22.06
2016-08-16T18:33:43.453Z,22.15
2016-08-16T18:34:44.164Z,22.14
2016-08-16T18:35:42.761Z,22.25
2016-08-16T18:36:43.424Z,22.11
2016-08-16T18:37:43.400Z,22.08
2016-08-16T18:38:43.398Z,22.08
2016-08-16T18:39:43.396Z,22.14
2016-08-16T18:40:43.386Z,22.11
2016-08-16T18:41:44.080Z,22.12
2016-08-16T18:42:44.086Z,22.1
2016-08-16T18:43:44.157Z,22.15
2016-08-16T18:44:44.064Z,22.1
2016-08-16T18:45:42.671Z,22.14
2016-08-16T18:46:44.017Z,22.11
2016-08-16T18:47:43.365Z,22.15
2016-08-16T18:48:43.324Z,21.95
2016-08-16T18:49:44.022Z,21.95
2016-08-16T18:50:43.281Z,21.97
2016-08-16T18:51:44.287Z,21.92
2016-08-16T18:52:43.689Z,21.9
2016-08-16T18:53:43.278Z,21.79
2016-08-16T18:54:43.961Z,21.77
2016-08-16T18:55:43.950Z,21.8
2016-08-16T18:56:43.217Z,21.74
2016-08-16T18:57:43.196Z,21.83
2016-08-16T18:58:43.199Z,21.62
2016-08-16T18:59:43.902Z,21.79
2016-08-16T19:00:43.901Z,21.68
2016-08-16T19:01:43.920Z,21.68
2016-08-16T19:02:43.866Z,21.56